Fairbanks, AK (99708)

11:22 PM AKST on December 05, 2016 (GMT -0900)
APRSWXNET | | Change Station

Elev 577 ft 64.89 °N, 147.88 °W | Updated 1 day ago

Clear
Clear
-15 °F
Feels Like -29 °F
N
6
Wind Variable Wind from ENE
Gusts mph

Today
High -- | Low -- °F
--% Chance of Precip.
Yesterday
High -- | Low -- °F
Precip. -- in
Pressure 30.55 in
Visibility 10.0 miles
Clouds Clear
Windchill -29 °F
Dew Point -22 °F
Humidity 70%
Rainfall in
Snow Depth Not available.
10:32 AM 2:51 PM
Waxing Crescent, 39% visible
METAR PAFB 060758Z AUTO 06005KT 10SM CLR M22/M26 A3048 RMK AO2 SLP343 T12241261
Pressure 30.55 in
Visibility 10.0 miles
Clouds Clear
Windchill -29 °F
Dew Point -22 °F
Humidity 70%
Rainfall in
Snow Depth Not available.
10:32 AM 2:51 PM
Waxing Crescent, 39% visible
METAR PAFB 060758Z AUTO 06005KT 10SM CLR M22/M26 A3048 RMK AO2 SLP343 T12241261

10-Day Weather Forecast

Almanac

Astronomy

Dec. 05, 2016 Rise Set
Actual Time
Civil Twilight
Nautical Twilight
Astronomical Twilight
Moon
Length of Visible Light
Length of Day
Tomorrow will be .
, % of the Moon is Illuminated

Today's Extremes

State Highs State Lows

Community

WunderPhotos

Upload Photos

1,955,935 photos uploaded!

WunderBlog® & News

Nearby

Air Quality

  Air Quality AQ Index Pollutant
Not available.

Snow Depth

Station Depth Elevation

Earthquake Activity

City Distance Mag. Time & Date
Minimum magnitude displayed is 2.5.

Coastal Water Temperatures

Place Temperature

Stations

Nearby Weather Stations

Station Location Temp. Windchill Dew Point Humidity Wind Precip. Elev Updated Type
                   

Watches & Warnings

There are currently no watches in effect.